Private Wetterstation Sandau
Wetterdaten: Donnerstag, 15.11.2012
Datum Zeit Temp. A. Feuchte A. Luftdruck Regen Wind Richtung Richtung Taupunkt Windchill
15.11.2012 00:01 -0,6 C 92 % 1028,2 hPa 0,0 l/m 0,0 km/h (0 Bft) SO 135 -1,7 C -0,6 C
15.11.2012 00:06 -0,7 C 92 % 1028,2 hPa 0,0 l/m 3,6 km/h (1 Bft) O-SO 112 -1,8 C -0,7 C
15.11.2012 00:11 -0,7 C 92 % 1028,1 hPa 0,0 l/m 2,2 km/h (1 Bft) O-SO 112 -1,8 C -0,7 C
15.11.2012 00:16 -0,8 C 92 % 1028,3 hPa 0,0 l/m 0,0 km/h (0 Bft) O-SO 112 -1,9 C -0,8 C
15.11.2012 00:21 -0,8 C 92 % 1028,2 hPa 0,0 l/m 0,0 km/h (0 Bft) O 90 -1,9 C -0,8 C
15.11.2012 00:26 -0,9 C 92 % 1027,9 hPa 0,0 l/m 0,0 km/h (0 Bft) O-SO 112 -2,0 C -0,9 C
15.11.2012 00:31 -1,0 C 92 % 1027,9 hPa 0,0 l/m 2,5 km/h (1 Bft) O 90 -2,1 C -1,0 C
15.11.2012 00:36 -1,1 C 92 % 1028,0 hPa 0,0 l/m 0,0 km/h (0 Bft) O 90 -2,2 C -1,1 C
15.11.2012 00:41 -1,1 C 92 % 1028,0 hPa 0,0 l/m 0,0 km/h (0 Bft) O 90 -2,2 C -1,1 C
15.11.2012 00:46 -1,1 C 92 % 1027,9 hPa 0,0 l/m 0,0 km/h (0 Bft) O 90 -2,2 C -1,1 C
15.11.2012 00:51 -1,1 C 92 % 1027,9 hPa 0,0 l/m 1,8 km/h (1 Bft) O-SO 112 -2,2 C -1,1 C
15.11.2012 00:56 -1,1 C 92 % 1027,9 hPa 0,0 l/m 3,2 km/h (1 Bft) O 90 -2,2 C -1,1 C
15.11.2012 01:01 -1,2 C 92 % 1027,7 hPa 0,0 l/m 0,0 km/h (0 Bft) O 90 -2,3 C -1,2 C
15.11.2012 01:06 -1,3 C 92 % 1027,7 hPa 0,0 l/m 0,0 km/h (0 Bft) O 90 -2,4 C -1,3 C
15.11.2012 01:11 -1,4 C 92 % 1027,7 hPa 0,0 l/m 2,2 km/h (1 Bft) O 90 -2,5 C -1,4 C
15.11.2012 01:16 -1,4 C 92 % 1027,7 hPa 0,0 l/m 0,0 km/h (0 Bft) O 90 -2,5 C -1,4 C
15.11.2012 01:21 -1,5 C 92 % 1027,8 hPa 0,0 l/m 0,0 km/h (0 Bft) O 90 -2,6 C -1,5 C
15.11.2012 01:26 -1,5 C 92 % 1027,6 hPa 0,0 l/m 0,0 km/h (0 Bft) O 90 -2,6 C -1,5 C
15.11.2012 01:31 -1,5 C 92 % 1027,7 hPa 0,0 l/m 0,0 km/h (0 Bft) O 90 -2,6 C -1,5 C
15.11.2012 01:36 -1,6 C 92 % 1027,7 hPa 0,0 l/m 0,0 km/h (0 Bft) O 90 -2,7 C -1,6 C
15.11.2012 01:41 -1,6 C 92 % 1027,8 hPa 0,0 l/m 0,0 km/h (0 Bft) O 90 -2,7 C -1,6 C
15.11.2012 01:46 -1,6 C 92 % 1027,6 hPa 0,0 l/m 0,0 km/h (0 Bft) O 90 -2,7 C -1,6 C
15.11.2012 01:51 -1,5 C 92 % 1027,6 hPa 0,0 l/m 0,0 km/h (0 Bft) O 90 -2,6 C -1,5 C
15.11.2012 01:56 -1,6 C 92 % 1027,7 hPa 0,0 l/m 2,9 km/h (1 Bft) O 90 -2,7 C -1,6 C
15.11.2012 02:01 -1,5 C 92 % 1027,6 hPa 0,0 l/m 0,0 km/h (0 Bft) O 90 -2,6 C -1,5 C
15.11.2012 02:06 -1,5 C 92 % 1027,6 hPa 0,0 l/m 0,0 km/h (0 Bft) O 90 -2,6 C -1,5 C
15.11.2012 02:11 -1,5 C 92 % 1027,6 hPa 0,0 l/m 0,0 km/h (0 Bft) O 90 -2,6 C -1,5 C
15.11.2012 02:16 -1,5 C 92 % 1027,5 hPa 0,0 l/m 0,0 km/h (0 Bft) O 90 -2,6 C -1,5 C
15.11.2012 02:21 -1,5 C 92 % 1027,5 hPa 0,0 l/m 0,0 km/h (0 Bft) O 90 -2,6 C -1,5 C
15.11.2012 02:26 -1,5 C 92 % 1027,5 hPa 0,0 l/m 0,0 km/h (0 Bft) O 90 -2,6 C -1,5 C
15.11.2012 02:31 -1,5 C 92 % 1027,5 hPa 0,0 l/m 0,0 km/h (0 Bft) O 90 -2,6 C -1,5 C
15.11.2012 02:36 -1,5 C 92 % 1027,5 hPa 0,0 l/m 0,0 km/h (0 Bft) O 90 -2,6 C -1,5 C
15.11.2012 02:41 -1,6 C 92 % 1027,3 hPa 0,0 l/m 0,0 km/h (0 Bft) O 90 -2,7 C -1,6 C
15.11.2012 02:46 -1,6 C 92 % 1027,3 hPa 0,0 l/m 3,2 km/h (1 Bft) O 90 -2,7 C -1,6 C
15.11.2012 02:51 -1,6 C 92 % 1027,3 hPa 0,0 l/m 0,0 km/h (0 Bft) O-SO 112 -2,7 C -1,6 C
15.11.2012 02:56 -1,7 C 92 % 1027,3 hPa 0,0 l/m 0,0 km/h (0 Bft) O 90 -2,8 C -1,7 C
15.11.2012 03:01 -1,8 C 92 % 1027,3 hPa 0,0 l/m 0,0 km/h (0 Bft) O 90 -2,9 C -1,8 C
15.11.2012 03:06 -1,9 C 92 % 1027,2 hPa 0,0 l/m 0,0 km/h (0 Bft) O 90 -3,0 C -1,9 C
15.11.2012 03:11 -2,1 C 92 % 1027,1 hPa 0,0 l/m 3,6 km/h (1 Bft) SO 135 -3,2 C -2,1 C
15.11.2012 03:16 -2,2 C 92 % 1027,2 hPa 0,0 l/m 0,0 km/h (0 Bft) SO 135 -3,3 C -2,2 C
15.11.2012 03:21 -2,3 C 92 % 1027,2 hPa 0,0 l/m 1,4 km/h (1 Bft) SO 135 -3,4 C -2,3 C
15.11.2012 03:26 -2,4 C 92 % 1027,2 hPa 0,0 l/m 2,5 km/h (1 Bft) O 90 -3,5 C -2,4 C
15.11.2012 03:31 -2,5 C 92 % 1027,2 hPa 0,0 l/m 2,2 km/h (1 Bft) S-SO 157 -3,6 C -2,5 C
15.11.2012 03:36 -2,6 C 92 % 1027,2 hPa 0,0 l/m 0,0 km/h (0 Bft) SO 135 -3,7 C -2,6 C
15.11.2012 03:41 -2,6 C 92 % 1027,2 hPa 0,0 l/m 0,0 km/h (0 Bft) SO 135 -3,7 C -2,6 C
15.11.2012 03:46 -2,7 C 92 % 1027,0 hPa 0,0 l/m 2,2 km/h (1 Bft) SO 135 -3,8 C -2,7 C
15.11.2012 03:51 -2,7 C 92 % 1027,0 hPa 0,0 l/m 0,0 km/h (0 Bft) SO 135 -3,8 C -2,7 C
15.11.2012 03:56 -2,7 C 92 % 1026,9 hPa 0,0 l/m 0,0 km/h (0 Bft) SO 135 -3,8 C -2,7 C
15.11.2012 04:01 -2,7 C 92 % 1026,9 hPa 0,0 l/m 0,0 km/h (0 Bft) SO 135 -3,8 C -2,7 C
15.11.2012 04:06 -2,7 C 92 % 1026,9 hPa 0,0 l/m 0,0 km/h (0 Bft) SO 135 -3,8 C -2,7 C
15.11.2012 04:11 -2,7 C 92 % 1026,8 hPa 0,0 l/m 1,8 km/h (1 Bft) SO 135 -3,8 C -2,7 C
15.11.2012 04:16 -2,7 C 92 % 1026,8 hPa 0,0 l/m 0,0 km/h (0 Bft) SO 135 -3,8 C -2,7 C
15.11.2012 04:21 -2,7 C 92 % 1026,9 hPa 0,0 l/m 1,4 km/h (1 Bft) O-SO 112 -3,8 C -2,7 C
15.11.2012 04:26 -2,7 C 92 % 1026,8 hPa 0,0 l/m 0,0 km/h (0 Bft) O-SO 112 -3,8 C -2,7 C
15.11.2012 04:31 -2,7 C 92 % 1026,6 hPa 0,0 l/m 0,0 km/h (0 Bft) SO 135 -3,8 C -2,7 C
15.11.2012 04:36 -2,7 C 92 % 1026,7 hPa 0,0 l/m 0,0 km/h (0 Bft) SO 135 -3,8 C -2,7 C
15.11.2012 04:41 -2,8 C 92 % 1026,6 hPa 0,0 l/m 0,0 km/h (0 Bft) SO 135 -3,9 C -2,8 C
15.11.2012 04:46 -2,9 C 92 % 1026,7 hPa 0,0 l/m 2,9 km/h (1 Bft) SO 135 -4,0 C -2,9 C
15.11.2012 04:51 -2,9 C 92 % 1026,5 hPa 0,0 l/m 1,4 km/h (1 Bft) SO 135 -4,0 C -2,9 C
15.11.2012 04:56 -2,9 C 92 % 1026,5 hPa 0,0 l/m 0,0 km/h (0 Bft) SO 135 -4,0 C -2,9 C
15.11.2012 05:01 -3,0 C 92 % 1026,5 hPa 0,0 l/m 0,0 km/h (0 Bft) O 90 -4,1 C -3,0 C
15.11.2012 05:06 -3,0 C 92 % 1026,5 hPa 0,0 l/m 0,0 km/h (0 Bft) SO 135 -4,1 C -3,0 C
15.11.2012 05:11 -3,1 C 92 % 1026,3 hPa 0,0 l/m 0,0 km/h (0 Bft) SO 135 -4,2 C -3,1 C
15.11.2012 05:16 -3,1 C 92 % 1026,3 hPa 0,0 l/m 0,0 km/h (0 Bft) SO 135 -4,2 C -3,1 C
15.11.2012 05:21 -3,1 C 92 % 1026,4 hPa 0,0 l/m 0,0 km/h (0 Bft) SO 135 -4,2 C -3,1 C
15.11.2012 05:26 -3,1 C 92 % 1026,5 hPa 0,0 l/m 0,0 km/h (0 Bft) SO 135 -4,2 C -3,1 C
15.11.2012 05:31 -3,1 C 92 % 1026,5 hPa 0,0 l/m 0,0 km/h (0 Bft) SO 135 -4,2 C -3,1 C
15.11.2012 05:36 -3,1 C 92 % 1026,6 hPa 0,0 l/m 0,0 km/h (0 Bft) SO 135 -4,2 C -3,1 C
15.11.2012 05:41 -3,1 C 92 % 1026,5 hPa 0,0 l/m 1,4 km/h (1 Bft) SO 135 -4,2 C -3,1 C
15.11.2012 05:46 -3,1 C 92 % 1026,3 hPa 0,0 l/m 0,0 km/h (0 Bft) S-SO 157 -4,2 C -3,1 C
15.11.2012 05:51 -3,1 C 92 % 1026,3 hPa 0,0 l/m 2,5 km/h (1 Bft) S-SO 157 -4,2 C -3,1 C
15.11.2012 05:56 -3,1 C 92 % 1026,2 hPa 0,0 l/m 0,0 km/h (0 Bft) SO 135 -4,2 C -3,1 C
15.11.2012 06:01 -3,0 C 92 % 1026,3 hPa 0,0 l/m 0,0 km/h (0 Bft) O 90 -4,1 C -3,0 C
15.11.2012 06:06 -3,0 C 92 % 1026,4 hPa 0,0 l/m 0,0 km/h (0 Bft) SO 135 -4,1 C -3,0 C
15.11.2012 06:11 -3,0 C 92 % 1026,3 hPa 0,0 l/m 0,0 km/h (0 Bft) O-SO 112 -4,1 C -3,0 C
15.11.2012 06:16 -2,9 C 92 % 1026,3 hPa 0,0 l/m 0,0 km/h (0 Bft) SO 135 -4,0 C -2,9 C
15.11.2012 06:21 -2,9 C 92 % 1026,4 hPa 0,0 l/m 0,0 km/h (0 Bft) SO 135 -4,0 C -2,9 C
15.11.2012 06:26 -2,9 C 92 % 1026,2 hPa 0,0 l/m 0,0 km/h (0 Bft) SO 135 -4,0 C -2,9 C
15.11.2012 06:31 -2,9 C 92 % 1026,4 hPa 0,0 l/m 0,0 km/h (0 Bft) SO 135 -4,0 C -2,9 C
15.11.2012 06:36 -2,9 C 92 % 1026,4 hPa 0,0 l/m 0,0 km/h (0 Bft) S-SO 157 -4,0 C -2,9 C
15.11.2012 06:41 -2,9 C 92 % 1026,4 hPa 0,0 l/m 0,0 km/h (0 Bft) S-SO 157 -4,0 C -2,9 C
15.11.2012 06:46 -2,9 C 92 % 1026,4 hPa 0,0 l/m 0,0 km/h (0 Bft) SO 135 -4,0 C -2,9 C
15.11.2012 06:51 -2,9 C 92 % 1026,4 hPa 0,0 l/m 0,0 km/h (0 Bft) O-SO 112 -4,0 C -2,9 C
15.11.2012 06:56 -2,8 C 92 % 1026,4 hPa 0,0 l/m 0,0 km/h (0 Bft) SO 135 -3,9 C -2,8 C
15.11.2012 07:01 -2,7 C 92 % 1026,4 hPa 0,0 l/m 0,0 km/h (0 Bft) SO 135 -3,8 C -2,7 C
15.11.2012 07:06 -2,7 C 92 % 1026,5 hPa 0,0 l/m 0,0 km/h (0 Bft) SO 135 -3,8 C -2,7 C
15.11.2012 07:11 -2,7 C 92 % 1026,5 hPa 0,0 l/m 0,0 km/h (0 Bft) SO 135 -3,8 C -2,7 C
15.11.2012 07:16 -2,7 C 92 % 1026,6 hPa 0,0 l/m 0,0 km/h (0 Bft) SO 135 -3,8 C -2,7 C
15.11.2012 07:21 -2,6 C 92 % 1026,5 hPa 0,0 l/m 0,0 km/h (0 Bft) SO 135 -3,7 C -2,6 C
15.11.2012 07:26 -2,6 C 92 % 1026,5 hPa 0,0 l/m 0,0 km/h (0 Bft) SO 135 -3,7 C -2,6 C
15.11.2012 07:31 -2,7 C 92 % 1026,5 hPa 0,0 l/m 0,0 km/h (0 Bft) SO 135 -3,8 C -2,7 C
15.11.2012 07:36 -2,6 C 92 % 1026,6 hPa 0,0 l/m 0,0 km/h (0 Bft) SO 135 -3,7 C -2,6 C
15.11.2012 07:41 -2,5 C 92 % 1026,4 hPa 0,0 l/m 0,0 km/h (0 Bft) SO 135 -3,6 C -2,5 C
15.11.2012 07:46 -2,4 C 92 % 1026,6 hPa 0,0 l/m 0,0 km/h (0 Bft) SO 135 -3,5 C -2,4 C
15.11.2012 07:51 -2,4 C 92 % 1026,7 hPa 0,0 l/m 0,0 km/h (0 Bft) SO 135 -3,5 C -2,4 C
15.11.2012 07:56 -2,4 C 92 % 1026,7 hPa 0,0 l/m 0,0 km/h (0 Bft) SO 135 -3,5 C -2,4 C
15.11.2012 08:01 -2,4 C 92 % 1026,7 hPa 0,0 l/m 0,0 km/h (0 Bft) SO 135 -3,5 C -2,4 C
15.11.2012 08:06 -2,4 C 92 % 1026,5 hPa 0,0 l/m 0,0 km/h (0 Bft) S-SO 157 -3,5 C -2,4 C
15.11.2012 08:11 -2,4 C 92 % 1026,8 hPa 0,0 l/m 0,0 km/h (0 Bft) S-SO 157 -3,5 C -2,4 C
15.11.2012 08:16 -2,4 C 92 % 1026,8 hPa 0,0 l/m 0,0 km/h (0 Bft) O-SO 112 -3,5 C -2,4 C
15.11.2012 08:21 -2,4 C 92 % 1026,8 hPa 0,0 l/m 0,0 km/h (0 Bft) O-SO 112 -3,5 C -2,4 C
15.11.2012 08:26 -2,4 C 92 % 1026,9 hPa 0,0 l/m 0,0 km/h (0 Bft) SO 135 -3,5 C -2,4 C
15.11.2012 08:31 -2,4 C 92 % 1026,6 hPa 0,0 l/m 0,0 km/h (0 Bft) SO 135 -3,5 C -2,4 C
15.11.2012 08:36 -2,4 C 92 % 1026,8 hPa 0,0 l/m 0,0 km/h (0 Bft) SO 135 -3,5 C -2,4 C
15.11.2012 08:41 -2,4 C 92 % 1026,8 hPa 0,0 l/m 0,0 km/h (0 Bft) SO 135 -3,5 C -2,4 C
15.11.2012 08:46 -2,4 C 92 % 1026,9 hPa 0,0 l/m 0,0 km/h (0 Bft) O 90 -3,5 C -2,4 C
15.11.2012 08:51 -2,4 C 92 % 1026,9 hPa 0,0 l/m 0,0 km/h (0 Bft) O 90 -3,5 C -2,4 C
15.11.2012 08:56 -2,4 C 92 % 1027,0 hPa 0,0 l/m 0,0 km/h (0 Bft) SO 135 -3,5 C -2,4 C
15.11.2012 09:01 -2,2 C 92 % 1026,6 hPa 0,0 l/m 0,0 km/h (0 Bft) SO 135 -3,3 C -2,2 C
15.11.2012 09:06 -2,2 C 92 % 1026,7 hPa 0,0 l/m 0,0 km/h (0 Bft) S-SO 157 -3,3 C -2,2 C
15.11.2012 09:11 -2,2 C 92 % 1026,7 hPa 0,0 l/m 0,0 km/h (0 Bft) S 180 -3,3 C -2,2 C
15.11.2012 09:16 -2,1 C 92 % 1026,8 hPa 0,0 l/m 0,0 km/h (0 Bft) S-SO 157 -3,2 C -2,1 C
15.11.2012 09:21 -2,1 C 92 % 1026,8 hPa 0,0 l/m 0,0 km/h (0 Bft) S-SO 157 -3,2 C -2,1 C
15.11.2012 09:26 -2,1 C 92 % 1026,9 hPa 0,0 l/m 0,0 km/h (0 Bft) SO 135 -3,2 C -2,1 C
15.11.2012 09:31 -2,1 C 92 % 1027,0 hPa 0,0 l/m 0,0 km/h (0 Bft) O-SO 112 -3,2 C -2,1 C
15.11.2012 09:36 -2,1 C 92 % 1027,0 hPa 0,0 l/m 0,0 km/h (0 Bft) O 90 -3,2 C -2,1 C
15.11.2012 09:41 -2,1 C 92 % 1027,2 hPa 0,0 l/m 0,0 km/h (0 Bft) O 90 -3,2 C -2,1 C
15.11.2012 09:46 -2,2 C 92 % 1027,1 hPa 0,0 l/m 0,0 km/h (0 Bft) O-NO 67 -3,3 C -2,2 C
15.11.2012 09:51 -2,1 C 92 % 1026,9 hPa 0,0 l/m 0,0 km/h (0 Bft) O-NO 67 -3,2 C -2,1 C
15.11.2012 09:56 -2,1 C 92 % 1027,0 hPa 0,0 l/m 0,0 km/h (0 Bft) O-NO 67 -3,2 C -2,1 C
15.11.2012 10:01 -1,9 C 93 % 1027,0 hPa 0,0 l/m 0,0 km/h (0 Bft) O-NO 67 -2,9 C -1,9 C
15.11.2012 10:06 -1,9 C 93 % 1027,0 hPa 0,0 l/m 0,0 km/h (0 Bft) O-NO 67 -2,9 C -1,9 C
15.11.2012 10:11 -1,7 C 93 % 1027,1 hPa 0,0 l/m 0,0 km/h (0 Bft) S-SO 157 -2,7 C -1,7 C
15.11.2012 10:16 -1,6 C 93 % 1026,9 hPa 0,0 l/m 0,0 km/h (0 Bft) SW 225 -2,6 C -1,6 C
15.11.2012 10:21 -1,5 C 93 % 1026,8 hPa 0,0 l/m 0,0 km/h (0 Bft) S-SW 202 -2,5 C -1,5 C
15.11.2012 10:26 -1,4 C 93 % 1026,8 hPa 0,0 l/m 0,0 km/h (0 Bft) SO 135 -2,4 C -1,4 C
15.11.2012 10:31 -1,4 C 93 % 1026,9 hPa 0,0 l/m 0,0 km/h (0 Bft) S 180 -2,4 C -1,4 C
15.11.2012 10:36 -1,2 C 93 % 1026,9 hPa 0,0 l/m 1,1 km/h (1 Bft) S 180 -2,2 C -1,2 C
15.11.2012 10:41 -1,1 C 93 % 1026,9 hPa 0,0 l/m 0,0 km/h (0 Bft) S-SO 157 -2,1 C -1,1 C
15.11.2012 10:46 -1,1 C 93 % 1026,9 hPa 0,0 l/m 28,8 km/h (4 Bft) N-NO 22 -2,1 C -7,8 C
15.11.2012 10:51 -1,1 C 93 % 1026,9 hPa 0,0 l/m 0,0 km/h (0 Bft) N-NO 22 -2,1 C -1,1 C
15.11.2012 10:56 -1,0 C 93 % 1027,0 hPa 0,0 l/m 0,0 km/h (0 Bft) O-NO 67 -2,0 C -1,0 C
15.11.2012 11:01 -1,0 C 93 % 1026,9 hPa 0,0 l/m 1,8 km/h (1 Bft) S-SO 157 -2,0 C -1,0 C
15.11.2012 11:06 -1,0 C 93 % 1026,8 hPa 0,0 l/m 0,0 km/h (0 Bft) N 360 -2,0 C -1,0 C
15.11.2012 11:11 -1,1 C 92 % 1026,6 hPa 0,0 l/m 0,0 km/h (0 Bft) O-NO 67 -2,2 C -1,1 C
15.11.2012 11:16 -1,1 C 92 % 1026,7 hPa 0,0 l/m 0,0 km/h (0 Bft) O-NO 67 -2,2 C -1,1 C
15.11.2012 11:21 -1,1 C 92 % 1026,6 hPa 0,0 l/m 0,0 km/h (0 Bft) O-NO 67 -2,2 C -1,1 C
15.11.2012 11:26 -1,1 C 92 % 1026,7 hPa 0,0 l/m 0,0 km/h (0 Bft) O-NO 67 -2,2 C -1,1 C
15.11.2012 11:31 -1,1 C 92 % 1026,8 hPa 0,0 l/m 0,0 km/h (0 Bft) N 360 -2,2 C -1,1 C
15.11.2012 11:36 -1,0 C 92 % 1026,7 hPa 0,0 l/m 1,4 km/h (1 Bft) O 90 -2,1 C -1,0 C
15.11.2012 11:41 -1,1 C 92 % 1026,7 hPa 0,0 l/m 0,0 km/h (0 Bft) N 360 -2,2 C -1,1 C
15.11.2012 11:46 -1,1 C 92 % 1026,8 hPa 0,0 l/m 0,0 km/h (0 Bft) SO 135 -2,2 C -1,1 C
15.11.2012 11:51 -1,0 C 92 % 1026,7 hPa 0,0 l/m 0,0 km/h (0 Bft) O-SO 112 -2,1 C -1,0 C
15.11.2012 11:56 -0,9 C 92 % 1026,7 hPa 0,0 l/m 0,0 km/h (0 Bft) O-NO 67 -2,0 C -0,9 C
15.11.2012 12:01 -0,8 C 92 % 1026,7 hPa 0,0 l/m 3,2 km/h (1 Bft) S-SO 157 -1,9 C -0,8 C
15.11.2012 12:06 -0,7 C 92 % 1026,5 hPa 0,0 l/m 2,2 km/h (1 Bft) W-SW 247 -1,8 C -0,7 C
15.11.2012 12:11 -0,6 C 92 % 1026,5 hPa 0,0 l/m 0,0 km/h (0 Bft) SO 135 -1,7 C -0,6 C
15.11.2012 12:16 -0,6 C 92 % 1026,4 hPa 0,0 l/m 2,9 km/h (1 Bft) S-SW 202 -1,7 C -0,6 C
15.11.2012 12:21 -0,6 C 92 % 1026,2 hPa 0,0 l/m 1,8 km/h (1 Bft) S-SO 157 -1,7 C -0,6 C
15.11.2012 12:26 -0,5 C 92 % 1026,4 hPa 0,0 l/m 0,0 km/h (0 Bft) S-SO 157 -1,6 C -0,5 C
15.11.2012 12:31 -0,6 C 92 % 1026,5 hPa 0,0 l/m 0,0 km/h (0 Bft) S-SO 157 -1,7 C -0,6 C
15.11.2012 12:36 -0,5 C 92 % 1026,3 hPa 0,0 l/m 1,4 km/h (1 Bft) S-SO 157 -1,6 C -0,5 C
15.11.2012 12:41 -0,4 C 92 % 1026,4 hPa 0,0 l/m 0,0 km/h (0 Bft) S-SO 157 -1,5 C -0,4 C
15.11.2012 12:46 -0,4 C 92 % 1026,4 hPa 0,0 l/m 2,2 km/h (1 Bft) SO 135 -1,5 C -0,4 C
15.11.2012 12:51 -0,4 C 92 % 1026,2 hPa 0,0 l/m 0,0 km/h (0 Bft) S 180 -1,5 C -0,4 C
15.11.2012 12:56 -0,2 C 92 % 1026,2 hPa 0,0 l/m 2,5 km/h (1 Bft) SO 135 -1,3 C -0,2 C
15.11.2012 13:01 -0,2 C 92 % 1026,2 hPa 0,0 l/m 1,1 km/h (1 Bft) O-SO 112 -1,3 C -0,2 C
15.11.2012 13:06 -0,2 C 92 % 1026,2 hPa 0,0 l/m 0,0 km/h (0 Bft) SO 135 -1,3 C -0,2 C
15.11.2012 13:11 -0,4 C 92 % 1026,0 hPa 0,0 l/m 2,5 km/h (1 Bft) S-SO 157 -1,5 C -0,4 C
15.11.2012 13:16 -0,2 C 92 % 1026,0 hPa 0,0 l/m 0,0 km/h (0 Bft) S 180 -1,3 C -0,2 C
15.11.2012 13:21 -0,2 C 92 % 1026,1 hPa 0,0 l/m 0,0 km/h (0 Bft) S 180 -1,3 C -0,2 C
15.11.2012 13:26 -0,2 C 92 % 1025,9 hPa 0,0 l/m 1,4 km/h (1 Bft) S-SW 202 -1,3 C -0,2 C
15.11.2012 13:31 -0,1 C 92 % 1025,8 hPa 0,0 l/m 0,0 km/h (0 Bft) SW 225 -1,2 C -0,1 C
15.11.2012 13:36 -0,1 C 92 % 1025,8 hPa 0,0 l/m 0,0 km/h (0 Bft) SW 225 -1,2 C -0,1 C
15.11.2012 13:41 0,0 C 92 % 1025,9 hPa 0,0 l/m 0,0 km/h (0 Bft) S 180 -1,1 C 0,0 C
15.11.2012 13:46 -0,1 C 92 % 1025,8 hPa 0,0 l/m 0,0 km/h (0 Bft) S-SO 157 -1,2 C -0,1 C
15.11.2012 13:51 -0,1 C 92 % 1025,9 hPa 0,0 l/m 0,0 km/h (0 Bft) O 90 -1,2 C -0,1 C
15.11.2012 13:56 -0,2 C 92 % 1025,8 hPa 0,0 l/m 0,0 km/h (0 Bft) O 90 -1,3 C -0,2 C
15.11.2012 14:01 -0,2 C 91 % 1025,8 hPa 0,0 l/m 0,0 km/h (0 Bft) O 90 -1,5 C -0,2 C
15.11.2012 14:06 -0,2 C 91 % 1025,8 hPa 0,0 l/m 1,4 km/h (1 Bft) NO 45 -1,5 C -0,2 C
15.11.2012 14:11 -0,4 C 91 % 1025,8 hPa 0,0 l/m 1,1 km/h (1 Bft) NO 45 -1,7 C -0,4 C
15.11.2012 14:16 -0,6 C 91 % 1025,9 hPa 0,0 l/m 0,0 km/h (0 Bft) NO 45 -1,9 C -0,6 C
15.11.2012 14:21 -0,6 C 91 % 1025,7 hPa 0,0 l/m 0,0 km/h (0 Bft) NO 45 -1,9 C -0,6 C
15.11.2012 14:26 -0,6 C 91 % 1025,5 hPa 0,0 l/m 0,0 km/h (0 Bft) NO 45 -1,9 C -0,6 C
15.11.2012 14:31 -0,5 C 92 % 1025,5 hPa 0,0 l/m 0,0 km/h (0 Bft) NO 45 -1,6 C -0,5 C
15.11.2012 14:36 -0,5 C 91 % 1025,7 hPa 0,0 l/m 0,0 km/h (0 Bft) NO 45 -1,8 C -0,5 C
15.11.2012 14:41 -0,4 C 91 % 1025,5 hPa 0,0 l/m 0,0 km/h (0 Bft) NO 45 -1,7 C -0,4 C
15.11.2012 14:46 -0,4 C 92 % 1025,4 hPa 0,0 l/m 0,0 km/h (0 Bft) O-SO 112 -1,5 C -0,4 C
15.11.2012 14:51 -0,5 C 91 % 1025,5 hPa 0,0 l/m 0,0 km/h (0 Bft) O-SO 112 -1,8 C -0,5 C
15.11.2012 14:56 -0,6 C 91 % 1025,4 hPa 0,0 l/m 0,0 km/h (0 Bft) S-SO 157 -1,9 C -0,6 C
15.11.2012 15:01 -0,6 C 91 % 1025,5 hPa 0,0 l/m 0,0 km/h (0 Bft) S-SO 157 -1,9 C -0,6 C
15.11.2012 15:06 -0,7 C 91 % 1025,4 hPa 0,0 l/m 0,0 km/h (0 Bft) S-SO 157 -2,0 C -0,7 C
15.11.2012 15:11 -0,7 C 91 % 1025,4 hPa 0,0 l/m 0,0 km/h (0 Bft) SO 135 -2,0 C -0,7 C
15.11.2012 15:16 -0,7 C 92 % 1025,5 hPa 0,0 l/m 0,0 km/h (0 Bft) O 90 -1,8 C -0,7 C
15.11.2012 15:21 -0,7 C 92 % 1025,5 hPa 0,0 l/m 0,0 km/h (0 Bft) NO 45 -1,8 C -0,7 C
15.11.2012 15:26 -0,8 C 92 % 1025,4 hPa 0,0 l/m 0,0 km/h (0 Bft) O-NO 67 -1,9 C -0,8 C
15.11.2012 15:31 -0,9 C 92 % 1025,4 hPa 0,0 l/m 0,0 km/h (0 Bft) S-SO 157 -2,0 C -0,9 C
15.11.2012 15:36 -0,9 C 92 % 1025,3 hPa 0,0 l/m 0,0 km/h (0 Bft) W-SW 247 -2,0 C -0,9 C
15.11.2012 15:41 -0,8 C 92 % 1025,3 hPa 0,0 l/m 0,0 km/h (0 Bft) S 180 -1,9 C -0,8 C
15.11.2012 15:46 -0,8 C 92 % 1025,2 hPa 0,0 l/m 0,0 km/h (0 Bft) S-SO 157 -1,9 C -0,8 C
15.11.2012 15:51 -0,8 C 92 % 1025,3 hPa 0,0 l/m 0,0 km/h (0 Bft) O-SO 112 -1,9 C -0,8 C
15.11.2012 15:56 -0,8 C 92 % 1025,3 hPa 0,0 l/m 0,0 km/h (0 Bft) W-SW 247 -1,9 C -0,8 C
15.11.2012 16:01 -0,7 C 92 % 1025,5 hPa 0,0 l/m 0,0 km/h (0 Bft) W-SW 247 -1,8 C -0,7 C
15.11.2012 16:06 -0,7 C 92 % 1025,5 hPa 0,0 l/m 0,0 km/h (0 Bft) O-NO 67 -1,8 C -0,7 C
15.11.2012 16:11 -0,8 C 92 % 1025,5 hPa 0,0 l/m 0,0 km/h (0 Bft) O-NO 67 -1,9 C -0,8 C
15.11.2012 16:16 -0,8 C 92 % 1025,5 hPa 0,0 l/m 0,0 km/h (0 Bft) S-SO 157 -1,9 C -0,8 C
15.11.2012 16:21 -0,7 C 92 % 1025,5 hPa 0,0 l/m 3,2 km/h (1 Bft) SO 135 -1,8 C -0,7 C
15.11.2012 16:26 -0,7 C 92 % 1025,4 hPa 0,0 l/m 1,8 km/h (1 Bft) O-SO 112 -1,8 C -0,7 C
15.11.2012 16:31 -0,7 C 92 % 1025,4 hPa 0,0 l/m 0,0 km/h (0 Bft) S-SO 157 -1,8 C -0,7 C
15.11.2012 16:36 -0,8 C 92 % 1025,3 hPa 0,0 l/m 1,1 km/h (1 Bft) S-SO 157 -1,9 C -0,8 C
15.11.2012 16:41 -0,8 C 92 % 1025,4 hPa 0,0 l/m 0,0 km/h (0 Bft) SO 135 -1,9 C -0,8 C
15.11.2012 16:46 -0,8 C 92 % 1025,4 hPa 0,0 l/m 0,0 km/h (0 Bft) SO 135 -1,9 C -0,8 C
15.11.2012 16:51 -0,8 C 92 % 1025,4 hPa 0,0 l/m 0,0 km/h (0 Bft) SO 135 -1,9 C -0,8 C
15.11.2012 16:56 -0,8 C 92 % 1025,3 hPa 0,0 l/m 1,8 km/h (1 Bft) SO 135 -1,9 C -0,8 C
15.11.2012 17:01 -0,8 C 92 % 1025,2 hPa 0,0 l/m 0,0 km/h (0 Bft) O-SO 112 -1,9 C -0,8 C
15.11.2012 17:06 -0,8 C 92 % 1025,2 hPa 0,0 l/m 0,0 km/h (0 Bft) SO 135 -1,9 C -0,8 C
15.11.2012 17:11 -0,8 C 92 % 1025,2 hPa 0,0 l/m 0,0 km/h (0 Bft) O-SO 112 -1,9 C -0,8 C
15.11.2012 17:16 -0,7 C 92 % 1025,3 hPa 0,0 l/m 0,0 km/h (0 Bft) S 180 -1,8 C -0,7 C
15.11.2012 17:21 -0,7 C 92 % 1025,2 hPa 0,0 l/m 0,0 km/h (0 Bft) S-SW 202 -1,8 C -0,7 C
15.11.2012 17:26 -0,7 C 92 % 1025,3 hPa 0,0 l/m 0,0 km/h (0 Bft) S-SO 157 -1,8 C -0,7 C
15.11.2012 17:31 -0,7 C 92 % 1025,3 hPa 0,0 l/m 0,0 km/h (0 Bft) SO 135 -1,8 C -0,7 C
15.11.2012 17:36 -0,7 C 92 % 1025,4 hPa 0,0 l/m 0,0 km/h (0 Bft) O-SO 112 -1,8 C -0,7 C
15.11.2012 17:41 -0,7 C 92 % 1025,4 hPa 0,0 l/m 0,0 km/h (0 Bft) S-SO 157 -1,8 C -0,7 C
15.11.2012 17:46 -0,7 C 92 % 1025,3 hPa 0,0 l/m 0,0 km/h (0 Bft) S-SO 157 -1,8 C -0,7 C
15.11.2012 17:51 -0,7 C 92 % 1025,2 hPa 0,0 l/m 0,0 km/h (0 Bft) S-SO 157 -1,8 C -0,7 C
15.11.2012 17:56 -0,7 C 92 % 1025,2 hPa 0,0 l/m 0,0 km/h (0 Bft) S-SO 157 -1,8 C -0,7 C
15.11.2012 18:01 -0,7 C 92 % 1025,3 hPa 0,0 l/m 0,0 km/h (0 Bft) S 180 -1,8 C -0,7 C
15.11.2012 18:06 -0,7 C 92 % 1025,5 hPa 0,0 l/m 0,0 km/h (0 Bft) O-SO 112 -1,8 C -0,7 C
15.11.2012 18:11 -0,8 C 92 % 1025,4 hPa 0,0 l/m 0,0 km/h (0 Bft) O-SO 112 -1,9 C -0,8 C
15.11.2012 18:16 -0,9 C 92 % 1025,5 hPa 0,0 l/m 0,0 km/h (0 Bft) O-SO 112 -2,0 C -0,9 C
15.11.2012 18:21 -1,0 C 92 % 1025,4 hPa 0,0 l/m 0,0 km/h (0 Bft) O-SO 112 -2,1 C -1,0 C
15.11.2012 18:26 -1,1 C 92 % 1025,5 hPa 0,0 l/m 0,0 km/h (0 Bft) O-NO 67 -2,2 C -1,1 C
15.11.2012 18:31 -1,1 C 92 % 1025,5 hPa 0,0 l/m 0,0 km/h (0 Bft) O-NO 67 -2,2 C -1,1 C
15.11.2012 18:36 -1,1 C 92 % 1025,4 hPa 0,0 l/m 0,0 km/h (0 Bft) SO 135 -2,2 C -1,1 C
15.11.2012 18:41 -1,1 C 92 % 1025,4 hPa 0,0 l/m 0,0 km/h (0 Bft) O-NO 67 -2,2 C -1,1 C
15.11.2012 18:46 -1,1 C 92 % 1025,3 hPa 0,0 l/m 0,0 km/h (0 Bft) S-SO 157 -2,2 C -1,1 C
15.11.2012 18:51 -1,1 C 92 % 1025,4 hPa 0,0 l/m 0,0 km/h (0 Bft) SO 135 -2,2 C -1,1 C
15.11.2012 18:56 -1,1 C 92 % 1025,3 hPa 0,0 l/m 0,0 km/h (0 Bft) NO 45 -2,2 C -1,1 C
15.11.2012 19:01 -1,1 C 92 % 1025,3 hPa 0,0 l/m 0,0 km/h (0 Bft) S-SO 157 -2,2 C -1,1 C
15.11.2012 19:06 -1,2 C 92 % 1025,2 hPa 0,0 l/m 0,0 km/h (0 Bft) O-NO 67 -2,3 C -1,2 C
15.11.2012 19:11 -1,2 C 92 % 1025,4 hPa 0,0 l/m 0,0 km/h (0 Bft) O-NO 67 -2,3 C -1,2 C
15.11.2012 19:16 -1,4 C 92 % 1025,5 hPa 0,0 l/m 0,0 km/h (0 Bft) O 90 -2,5 C -1,4 C
15.11.2012 19:21 -1,4 C 93 % 1025,4 hPa 0,0 l/m 0,0 km/h (0 Bft) S-SO 157 -2,4 C -1,4 C
15.11.2012 19:26 -1,3 C 93 % 1025,4 hPa 0,0 l/m 0,0 km/h (0 Bft) S-SO 157 -2,3 C -1,3 C
15.11.2012 19:31 -1,3 C 93 % 1025,3 hPa 0,0 l/m 0,0 km/h (0 Bft) S 180 -2,3 C -1,3 C
15.11.2012 19:36 -1,3 C 93 % 1025,4 hPa 0,0 l/m 0,0 km/h (0 Bft) S 180 -2,3 C -1,3 C
15.11.2012 19:41 -1,2 C 93 % 1025,4 hPa 0,0 l/m 0,0 km/h (0 Bft) S 180 -2,2 C -1,2 C
15.11.2012 19:46 -1,2 C 93 % 1025,4 hPa 0,0 l/m 0,0 km/h (0 Bft) S-SO 157 -2,2 C -1,2 C
15.11.2012 19:51 -1,2 C 93 % 1025,4 hPa 0,0 l/m 0,0 km/h (0 Bft) S-SO 157 -2,2 C -1,2 C
15.11.2012 19:56 -1,1 C 93 % 1025,4 hPa 0,0 l/m 0,0 km/h (0 Bft) S-SO 157 -2,1 C -1,1 C
15.11.2012 20:01 -1,2 C 93 % 1025,4 hPa 0,0 l/m 0,0 km/h (0 Bft) SO 135 -2,2 C -1,2 C
15.11.2012 20:06 -1,2 C 93 % 1025,3 hPa 0,0 l/m 0,0 km/h (0 Bft) SO 135 -2,2 C -1,2 C
15.11.2012 20:11 -1,3 C 93 % 1025,3 hPa 0,0 l/m 0,0 km/h (0 Bft) SO 135 -2,3 C -1,3 C
15.11.2012 20:16 -1,4 C 93 % 1025,4 hPa 0,0 l/m 0,0 km/h (0 Bft) O-SO 112 -2,4 C -1,4 C
15.11.2012 20:21 -1,5 C 93 % 1025,5 hPa 0,0 l/m 0,0 km/h (0 Bft) O-NO 67 -2,5 C -1,5 C
15.11.2012 20:26 -1,6 C 93 % 1025,4 hPa 0,0 l/m 0,0 km/h (0 Bft) O-NO 67 -2,6 C -1,6 C
15.11.2012 20:31 -1,6 C 93 % 1025,5 hPa 0,0 l/m 0,0 km/h (0 Bft) S-SO 157 -2,6 C -1,6 C
15.11.2012 20:36 -1,7 C 93 % 1025,1 hPa 0,0 l/m 0,0 km/h (0 Bft) SO 135 -2,7 C -1,7 C
15.11.2012 20:41 -1,7 C 93 % 1025,0 hPa 0,0 l/m 0,0 km/h (0 Bft) SO 135 -2,7 C -1,7 C
15.11.2012 20:46 -1,6 C 93 % 1025,1 hPa 0,0 l/m 0,0 km/h (0 Bft) S-SO 157 -2,6 C -1,6 C
15.11.2012 20:51 -1,6 C 93 % 1025,1 hPa 0,0 l/m 0,0 km/h (0 Bft) SO 135 -2,6 C -1,6 C
15.11.2012 20:56 -1,6 C 93 % 1025,2 hPa 0,0 l/m 0,0 km/h (0 Bft) SO 135 -2,6 C -1,6 C
15.11.2012 21:01 -1,6 C 93 % 1025,2 hPa 0,0 l/m 0,0 km/h (0 Bft) S-SO 157 -2,6 C -1,6 C
15.11.2012 21:06 -1,5 C 93 % 1025,3 hPa 0,0 l/m 0,0 km/h (0 Bft) SO 135 -2,5 C -1,5 C
15.11.2012 21:11 -1,5 C 93 % 1025,2 hPa 0,0 l/m 0,0 km/h (0 Bft) SO 135 -2,5 C -1,5 C
15.11.2012 21:16 -1,4 C 93 % 1025,2 hPa 0,0 l/m 0,0 km/h (0 Bft) SO 135 -2,4 C -1,4 C
15.11.2012 21:21 -1,4 C 93 % 1025,1 hPa 0,0 l/m 0,0 km/h (0 Bft) S-SW 202 -2,4 C -1,4 C
15.11.2012 21:26 -1,4 C 93 % 1025,0 hPa 0,0 l/m 0,0 km/h (0 Bft) SO 135 -2,4 C -1,4 C
15.11.2012 21:31 -1,4 C 93 % 1025,0 hPa 0,0 l/m 0,0 km/h (0 Bft) S 180 -2,4 C -1,4 C
15.11.2012 21:36 -1,3 C 93 % 1025,2 hPa 0,0 l/m 0,0 km/h (0 Bft) S-SO 157 -2,3 C -1,3 C
15.11.2012 21:41 -1,4 C 93 % 1025,2 hPa 0,0 l/m 0,0 km/h (0 Bft) SO 135 -2,4 C -1,4 C
15.11.2012 21:46 -1,4 C 93 % 1025,2 hPa 0,0 l/m 0,0 km/h (0 Bft) SO 135 -2,4 C -1,4 C
15.11.2012 21:51 -1,4 C 93 % 1025,2 hPa 0,0 l/m 0,0 km/h (0 Bft) SO 135 -2,4 C -1,4 C
15.11.2012 21:56 -1,4 C 93 % 1025,1 hPa 0,0 l/m 0,0 km/h (0 Bft) S 180 -2,4 C -1,4 C
15.11.2012 22:01 -1,3 C 93 % 1025,1 hPa 0,0 l/m 0,0 km/h (0 Bft) S 180 -2,3 C -1,3 C
15.11.2012 22:06 -1,2 C 93 % 1025,3 hPa 0,0 l/m 0,0 km/h (0 Bft) S 180 -2,2 C -1,2 C
15.11.2012 22:11 -1,2 C 93 % 1025,3 hPa 0,0 l/m 0,0 km/h (0 Bft) S-SO 157 -2,2 C -1,2 C
15.11.2012 22:16 -1,3 C 93 % 1025,2 hPa 0,0 l/m 0,0 km/h (0 Bft) SO 135 -2,3 C -1,3 C
15.11.2012 22:21 -1,3 C 93 % 1025,3 hPa 0,0 l/m 0,0 km/h (0 Bft) O 90 -2,3 C -1,3 C
15.11.2012 22:26 -1,3 C 93 % 1025,2 hPa 0,0 l/m 0,0 km/h (0 Bft) S 180 -2,3 C -1,3 C
15.11.2012 22:31 -1,3 C 93 % 1025,2 hPa 0,0 l/m 0,0 km/h (0 Bft) S 180 -2,3 C -1,3 C
15.11.2012 22:36 -1,3 C 93 % 1025,1 hPa 0,0 l/m 0,0 km/h (0 Bft) SO 135 -2,3 C -1,3 C
15.11.2012 22:41 -1,3 C 93 % 1025,1 hPa 0,0 l/m 0,0 km/h (0 Bft) O-SO 112 -2,3 C -1,3 C
15.11.2012 22:46 -1,3 C 93 % 1025,1 hPa 0,0 l/m 0,0 km/h (0 Bft) O 90 -2,3 C -1,3 C
15.11.2012 22:51 -1,4 C 93 % 1025,1 hPa 0,0 l/m 0,0 km/h (0 Bft) O-SO 112 -2,4 C -1,4 C
15.11.2012 22:56 -1,4 C 93 % 1025,0 hPa 0,0 l/m 0,0 km/h (0 Bft) SO 135 -2,4 C -1,4 C
15.11.2012 23:01 -1,4 C 93 % 1025,1 hPa 0,0 l/m 0,0 km/h (0 Bft) S-SO 157 -2,4 C -1,4 C
15.11.2012 23:06 -1,4 C 93 % 1024,9 hPa 0,0 l/m 0,0 km/h (0 Bft) S 180 -2,4 C -1,4 C
15.11.2012 23:11 -1,4 C 93 % 1025,0 hPa 0,0 l/m 0,0 km/h (0 Bft) S-SO 157 -2,4 C -1,4 C
15.11.2012 23:16 -1,4 C 93 % 1024,9 hPa 0,0 l/m 0,0 km/h (0 Bft) S-SO 157 -2,4 C -1,4 C
15.11.2012 23:21 -1,4 C 93 % 1025,1 hPa 0,0 l/m 0,0 km/h (0 Bft) SO 135 -2,4 C -1,4 C
15.11.2012 23:26 -1,6 C 93 % 1025,0 hPa 0,0 l/m 0,0 km/h (0 Bft) O-NO 67 -2,6 C -1,6 C
15.11.2012 23:31 -1,6 C 93 % 1025,2 hPa 0,0 l/m 0,0 km/h (0 Bft) S-SO 157 -2,6 C -1,6 C
15.11.2012 23:36 -1,6 C 93 % 1025,1 hPa 0,0 l/m 0,0 km/h (0 Bft) SO 135 -2,6 C -1,6 C
15.11.2012 23:41 -1,5 C 93 % 1025,2 hPa 0,0 l/m 0,0 km/h (0 Bft) SO 135 -2,5 C -1,5 C
15.11.2012 23:46 -1,5 C 93 % 1025,0 hPa 0,0 l/m 0,0 km/h (0 Bft) S-SO 157 -2,5 C -1,5 C
15.11.2012 23:51 -1,4 C 93 % 1024,9 hPa 0,0 l/m 0,0 km/h (0 Bft) S 180 -2,4 C -1,4 C
15.11.2012 23:56 -1,4 C 93 % 1025,0 hPa 0,0 l/m 0,0 km/h (0 Bft) S-SW 202 -2,4 C -1,4 C
_ Min-Zeit 05:11 14:01 23:06 - 00:01 - - 05:11 10:46
Minimum _ -3,1 C 91 % 1024,9 hPa - 0,0 km/h (0 Bft) - - -4,2 C -7,8 C
_ Max-Zeit 13:41 10:01 00:16 00:01 10:46 - - 13:41 13:41
Maximum _ 0,0 C 93 % 1028,3 hPa 0,0 l/m 28,8 km/h
N-NO (4 Bft)
- - -1,1 C 0,0 C
Durchschnitt _ -1,5 C 92 % 1026,2 hPa #0,0 l/m 0,4 km/h (0 Bft) SO - -2,6 C -1,5 C
(c) by David Heller